Time;durP1;ratioP1;P1;durP2;ratioP2;P2;SDS_P1;SDS_P2;PMS_P1;PMS_P2;Temp;Humidity;BMP_temperature;BMP_pressure;BME280_temperature;BME280_humidity;BME280_pressure;Samples;Min_cycle;Max_cycle;Signal;HPM_P1;HPM_P2
2022/03/26 00:01:27;;;;;;;1.73;1.63;;;;;;;-143.85;100.00;70650.75;5058540;28;20029;-80
2022/03/26 00:03:52;;;;;;;1.08;0.95;;;;;;;-143.85;100.00;70650.75;5058204;28;20024;-81
2022/03/26 00:06:18;;;;;;;3.63;2.08;;;;;;;-143.85;100.00;70650.75;5056641;28;20431;-80
2022/03/26 00:08:43;;;;;;;0.68;0.68;;;;;;;-143.85;100.00;70650.75;5056972;28;20017;-81
2022/03/26 00:11:09;;;;;;;2.08;1.95;;;;;;;-143.85;100.00;70650.75;5058437;28;20029;-81
2022/03/26 00:13:34;;;;;;;1.77;1.67;;;;;;;-143.85;100.00;70650.75;5059655;28;20020;-81
2022/03/26 00:16:01;;;;;;;0.63;0.63;;;;;;;-143.85;100.00;70650.75;5059869;28;20073;-81
2022/03/26 00:18:27;;;;;;;0.73;0.73;;;;;;;-143.85;100.00;70650.75;5058599;28;20230;-81
2022/03/26 00:20:52;;;;;;;1.55;1.55;;;;;;;-143.85;100.00;70650.75;5058667;28;20032;-81
2022/03/26 00:23:18;;;;;;;1.52;1.42;;;;;;;-143.85;100.00;70650.75;5058365;28;20028;-81
2022/03/26 00:25:44;;;;;;;0.77;0.77;;;;;;;-143.85;100.00;70650.75;5058322;28;20025;-81
2022/03/26 00:28:10;;;;;;;1.17;1.10;;;;;;;-143.85;100.00;70650.75;5057836;28;20025;-80
2022/03/26 00:30:35;;;;;;;3.35;2.30;;;;;;;-143.85;100.00;70650.75;5058984;28;20071;-79
2022/03/26 00:33:01;;;;;;;1.00;1.00;;;;;;;-143.85;100.00;70650.75;5057988;28;20024;-81
2022/03/26 00:35:26;;;;;;;1.45;1.33;;;;;;;-143.85;100.00;70650.75;5059804;28;20025;-81
2022/03/26 00:37:53;;;;;;;1.17;1.17;;;;;;;-143.85;100.00;70650.75;5059440;28;20025;-80
2022/03/26 00:40:18;;;;;;;1.08;1.08;;;;;;;-143.85;100.00;70650.75;5059356;28;20086;-81
2022/03/26 00:42:44;;;;;;;0.80;0.80;;;;;;;-143.85;100.00;70650.75;5070406;28;20032;-78
2022/03/26 00:45:09;;;;;;;0.90;0.90;;;;;;;-143.85;100.00;70650.75;5072083;28;20016;-79
2022/03/26 00:47:35;;;;;;;1.75;1.65;;;;;;;-143.85;100.00;70650.75;5074987;28;20049;-79
2022/03/26 00:50:00;;;;;;;1.83;1.73;;;;;;;-143.85;100.00;70650.75;5057934;28;20107;-80
2022/03/26 00:52:26;;;;;;;3.42;2.55;;;;;;;-143.85;100.00;70650.75;5057383;28;20465;-81
2022/03/26 00:54:51;;;;;;;2.08;1.98;;;;;;;-143.85;100.00;70650.75;5058727;28;20021;-81
2022/03/26 00:57:17;;;;;;;1.30;1.30;;;;;;;-143.85;100.00;70650.75;5057439;28;20029;-81
2022/03/26 00:59:43;;;;;;;0.50;0.50;;;;;;;-143.85;100.00;70650.75;5058475;28;20016;-81
2022/03/26 01:02:09;;;;;;;2.38;2.15;;;;;;;-143.85;100.00;70650.75;5056787;28;20404;-81
2022/03/26 01:04:34;;;;;;;2.05;1.30;;;;;;;-143.85;100.00;70650.75;5058726;28;20020;-81
2022/03/26 01:06:59;;;;;;;2.13;1.83;;;;;;;-143.85;100.00;70650.75;5057856;28;20045;-81
2022/03/26 01:09:25;;;;;;;2.30;2.10;;;;;;;-143.85;100.00;70650.75;5059796;28;20492;-81
2022/03/26 01:11:50;;;;;;;1.15;1.15;;;;;;;-143.85;100.00;70650.75;5069471;28;20024;-81
2022/03/26 01:14:16;;;;;;;3.20;2.40;;;;;;;-143.85;100.00;70650.75;5056655;28;20028;-81
2022/03/26 01:16:41;;;;;;;6.95;1.67;;;;;;;-143.85;100.00;70650.75;5055657;28;20020;-80
2022/03/26 01:19:07;;;;;;;0.63;0.63;;;;;;;-143.85;100.00;70650.75;5056362;28;20492;-80
2022/03/26 01:21:32;;;;;;;1.63;0.98;;;;;;;-143.85;100.00;70650.75;5056781;28;20025;-80
2022/03/26 01:23:58;;;;;;;6.05;1.67;;;;;;;-143.85;100.00;70650.75;5055397;28;20076;-81
2022/03/26 01:26:24;;;;;;;13.15;3.38;;;;;;;-143.85;100.00;70650.75;5056181;28;20025;-81
2022/03/26 01:28:50;;;;;;;1.30;1.05;;;;;;;-143.85;100.00;70650.75;5055551;28;20025;-80
2022/03/26 01:31:19;;;;;;;2.22;2.10;;;;;;;-143.85;100.00;70650.75;5056437;28;20083;-80
2022/03/26 01:33:46;;;;;;;1.48;1.48;;;;;;;-143.85;100.00;70650.75;5055618;28;20025;-80
2022/03/26 01:36:12;;;;;;;0.63;0.63;;;;;;;-143.85;100.00;70650.75;5056904;28;20132;-80
2022/03/26 01:38:37;;;;;;;0.50;0.50;;;;;;;-143.85;100.00;70650.75;5061520;28;20500;-81
2022/03/26 01:41:03;;;;;;;2.65;2.45;;;;;;;-143.85;100.00;70650.75;5065382;28;20021;-82
2022/03/26 01:43:28;;;;;;;1.80;1.73;;;;;;;-143.85;100.00;70650.75;5070952;28;20067;-84
2022/03/26 01:45:54;;;;;;;1.27;1.27;;;;;;;-143.85;100.00;70650.75;5068550;28;20052;-81
2022/03/26 01:48:19;;;;;;;1.83;1.65;;;;;;;-143.85;100.00;70650.75;5057106;28;20032;-81
2022/03/26 01:50:45;;;;;;;1.25;1.17;;;;;;;-143.85;100.00;70650.75;5057421;28;20024;-80
2022/03/26 01:53:11;;;;;;;1.30;1.25;;;;;;;-143.85;100.00;70650.75;5059475;28;20032;-80
2022/03/26 01:55:36;;;;;;;1.77;1.67;;;;;;;-143.85;100.00;70650.75;5059836;28;20021;-79
2022/03/26 01:58:02;;;;;;;1.05;1.00;;;;;;;-143.85;100.00;70650.75;5063830;28;20020;-83
2022/03/26 02:00:28;;;;;;;2.97;2.78;;;;;;;-143.85;100.00;70650.75;5073658;22;20115;-88
2022/03/26 02:02:54;;;;;;;2.47;2.03;;;;;;;-143.85;100.00;70650.75;5049747;28;20469;-89
2022/03/26 02:05:20;;;;;;;0.73;0.73;;;;;;;-143.85;100.00;70650.75;5033229;28;20028;-86
2022/03/26 02:07:47;;;;;;;1.10;1.00;;;;;;;-143.85;100.00;70650.75;5049372;28;20126;-86
2022/03/26 02:10:15;;;;;;;1.67;1.58;;;;;;;-143.85;100.00;70650.75;5049694;28;20025;-86
2022/03/26 02:12:41;;;;;;;0.93;0.93;;;;;;;-143.85;100.00;70650.75;5049765;28;20465;-86
2022/03/26 02:15:08;;;;;;;4.85;2.30;;;;;;;-143.85;100.00;70650.75;5049533;28;20075;-86
2022/03/26 02:17:35;;;;;;;0.52;0.52;;;;;;;-143.85;100.00;70650.75;5049487;28;20033;-86
2022/03/26 02:20:03;;;;;;;4.15;2.17;;;;;;;-143.85;100.00;70650.75;5049500;28;20037;-86
2022/03/26 02:22:29;;;;;;;0.73;0.73;;;;;;;-143.85;100.00;70650.75;5033601;28;20021;-86
2022/03/26 02:24:55;;;;;;;0.60;0.60;;;;;;;-143.85;100.00;70650.75;5049475;28;20032;-86
2022/03/26 02:27:21;;;;;;;1.20;0.85;;;;;;;-143.85;100.00;70650.75;5040415;28;20009;-86
2022/03/26 02:29:47;;;;;;;0.38;0.38;;;;;;;-143.85;100.00;70650.75;5074052;28;20033;-86
2022/03/26 02:32:13;;;;;;;1.90;1.83;;;;;;;-143.85;100.00;70650.75;5049657;28;20024;-87
2022/03/26 02:34:38;;;;;;;0.93;0.93;;;;;;;-143.85;100.00;70650.75;5033055;28;20104;-87
2022/03/26 02:37:04;;;;;;;0.70;0.55;;;;;;;-143.85;100.00;70650.75;5032538;28;20040;-85
2022/03/26 02:39:29;;;;;;;1.73;1.65;;;;;;;-143.85;100.00;70650.75;5032581;28;20040;-86
2022/03/26 02:41:55;;;;;;;0.95;0.95;;;;;;;-143.85;100.00;70650.75;5048936;28;20483;-87
2022/03/26 02:44:21;;;;;;;1.65;1.35;;;;;;;-143.85;100.00;70650.75;5049066;28;20018;-86
2022/03/26 02:46:46;;;;;;;0.38;0.38;;;;;;;-143.85;100.00;70650.75;5048893;28;20017;-86
2022/03/26 02:49:13;;;;;;;0.73;0.73;;;;;;;-143.85;100.00;70650.75;5049074;28;20028;-87
2022/03/26 02:51:39;;;;;;;0.50;0.50;;;;;;;-143.85;100.00;70650.75;5049059;28;20144;-87
2022/03/26 02:54:05;;;;;;;1.23;1.15;;;;;;;-143.85;100.00;70650.75;5048531;28;20035;-86
2022/03/26 02:56:30;;;;;;;0.65;0.65;;;;;;;-143.85;100.00;70650.75;5049061;28;20013;-87
2022/03/26 02:58:56;;;;;;;0.65;0.65;;;;;;;-143.85;100.00;70650.75;5048609;28;20033;-87
2022/03/26 03:01:23;;;;;;;2.97;2.78;;;;;;;-143.85;100.00;70650.75;5049043;28;20022;-88
2022/03/26 03:03:49;;;;;;;0.80;0.80;;;;;;;-143.85;100.00;70650.75;5048907;28;20452;-87
2022/03/26 03:06:15;;;;;;;1.60;1.50;;;;;;;-143.85;100.00;70650.75;5048755;28;20028;-87
2022/03/26 03:08:40;;;;;;;1.90;1.80;;;;;;;-143.85;100.00;70650.75;5049107;28;20033;-87
2022/03/26 03:11:07;;;;;;;0.88;0.88;;;;;;;-143.85;100.00;70650.75;5033242;28;20146;-87
2022/03/26 03:13:33;;;;;;;0.82;0.82;;;;;;;-143.85;100.00;70650.75;5032721;28;20036;-87
2022/03/26 03:15:58;;;;;;;2.30;1.73;;;;;;;-143.85;100.00;70650.75;5048826;28;20026;-87
2022/03/26 03:18:23;;;;;;;2.10;2.00;;;;;;;-143.85;100.00;70650.75;5048627;28;20033;-87
2022/03/26 03:20:49;;;;;;;0.73;0.73;;;;;;;-143.85;100.00;70650.75;5048829;28;20021;-87
2022/03/26 03:23:14;;;;;;;0.90;0.90;;;;;;;-143.85;100.00;70650.75;5048735;28;20021;-87
2022/03/26 03:25:40;;;;;;;0.93;0.90;;;;;;;-143.85;100.00;70650.75;5048606;28;20096;-88
2022/03/26 03:28:05;;;;;;;1.85;1.75;;;;;;;-143.85;100.00;70650.75;5033160;28;20060;-88
2022/03/26 03:30:31;;;;;;;0.95;0.95;;;;;;;-143.85;100.00;70650.75;5032009;28;20117;-89
2022/03/26 03:32:56;;;;;;;2.97;1.30;;;;;;;-143.85;100.00;70650.75;5048715;28;20029;-88
2022/03/26 03:35:22;;;;;;;0.60;0.60;;;;;;;-143.85;100.00;70650.75;5048807;28;20022;-86
2022/03/26 03:37:48;;;;;;;1.10;1.05;;;;;;;-143.85;100.00;70650.75;5048560;28;20025;-87
2022/03/26 03:40:13;;;;;;;2.25;1.90;;;;;;;-143.85;100.00;70650.75;5048489;28;20091;-88
2022/03/26 03:42:39;;;;;;;0.50;0.50;;;;;;;-143.85;100.00;70650.75;5048900;28;20064;-87
2022/03/26 03:45:06;;;;;;;1.02;1.02;;;;;;;-143.85;100.00;70650.75;5048308;28;20021;-87
2022/03/26 03:47:31;;;;;;;0.73;0.73;;;;;;;-143.85;100.00;70650.75;5052563;28;20048;-88
2022/03/26 03:49:57;;;;;;;0.68;0.68;;;;;;;-143.85;100.00;70650.75;5052403;28;20385;-86
2022/03/26 03:52:23;;;;;;;4.22;2.05;;;;;;;-143.85;100.00;70650.75;5035438;28;20112;-86
2022/03/26 03:54:48;;;;;;;0.70;0.70;;;;;;;-143.85;100.00;70650.75;5052081;28;20021;-86
2022/03/26 03:57:13;;;;;;;0.60;0.60;;;;;;;-143.85;100.00;70650.75;5052476;28;20380;-86
2022/03/26 03:59:41;;;;;;;0.77;0.77;;;;;;;-143.85;100.00;70650.75;5051980;28;20050;-86
2022/03/26 04:02:09;;;;;;;1.92;1.55;;;;;;;-143.85;100.00;70650.75;5051951;28;20021;-87
2022/03/26 04:04:41;;;;;;;1.17;1.08;;;;;;;-143.85;100.00;70650.75;5036309;28;20457;-87
2022/03/26 04:07:09;;;;;;;0.85;0.85;;;;;;;-143.85;100.00;70650.75;5052275;28;20506;-87
2022/03/26 04:09:35;;;;;;;0.88;0.88;;;;;;;-143.85;100.00;70650.75;5052119;28;20025;-86
2022/03/26 04:12:01;;;;;;;2.10;2.00;;;;;;;-143.85;100.00;70650.75;5052027;28;20025;-87
2022/03/26 04:14:26;;;;;;;1.20;1.10;;;;;;;-143.85;100.00;70650.75;5051758;28;20048;-87
2022/03/26 04:16:52;;;;;;;2.45;1.58;;;;;;;-143.85;100.00;70650.75;5051700;28;20116;-89
2022/03/26 04:19:18;;;;;;;3.28;2.92;;;;;;;-143.85;100.00;70650.75;5051582;28;20079;-88
2022/03/26 04:21:44;;;;;;;1.85;0.85;;;;;;;-143.85;100.00;70650.75;5051499;28;20021;-88
2022/03/26 04:24:09;;;;;;;0.57;0.57;;;;;;;-143.85;100.00;70650.75;5035235;28;20480;-87
2022/03/26 04:26:35;;;;;;;2.58;2.00;;;;;;;-143.85;100.00;70650.75;5051600;28;20048;-87
2022/03/26 04:29:01;;;;;;;1.50;1.40;;;;;;;-143.85;100.00;70650.75;5034734;28;20029;-87
2022/03/26 04:31:27;;;;;;;0.60;0.60;;;;;;;-143.85;100.00;70650.75;5034752;28;20469;-87
2022/03/26 04:33:53;;;;;;;0.93;0.93;;;;;;;-143.85;100.00;70650.75;5034587;28;20048;-87
2022/03/26 04:36:20;;;;;;;1.80;1.70;;;;;;;-143.85;100.00;70650.75;5034640;28;20116;-87
2022/03/26 04:38:46;;;;;;;2.38;2.17;;;;;;;-143.85;100.00;70650.75;5050708;28;20030;-87
2022/03/26 04:41:12;;;;;;;1.15;1.13;;;;;;;-143.85;100.00;70650.75;5051122;28;20549;-87
2022/03/26 04:43:37;;;;;;;2.08;1.13;;;;;;;-143.85;100.00;70650.75;5051341;28;20022;-86
2022/03/26 04:46:03;;;;;;;3.63;3.08;;;;;;;-143.85;100.00;70650.75;5050879;28;20112;-86
2022/03/26 04:48:29;;;;;;;2.25;2.15;;;;;;;-143.85;100.00;70650.75;5050691;28;20400;-87
2022/03/26 04:50:54;;;;;;;1.02;1.02;;;;;;;-143.85;100.00;70650.75;5050810;28;20028;-86
2022/03/26 04:53:19;;;;;;;1.60;1.58;;;;;;;-143.85;100.00;70650.75;5034362;28;20104;-86
2022/03/26 04:55:45;;;;;;;1.17;0.70;;;;;;;-143.85;100.00;70650.75;5033856;28;20021;-86
2022/03/26 04:58:10;;;;;;;1.85;1.75;;;;;;;-143.85;100.00;70650.75;5049880;28;20053;-86
2022/03/26 05:00:36;;;;;;;1.60;1.52;;;;;;;-143.85;100.00;70650.75;5050243;28;20050;-85
2022/03/26 05:03:01;;;;;;;1.05;1.05;;;;;;;-143.85;100.00;70650.75;5031733;28;20017;-85
2022/03/26 05:05:27;;;;;;;0.50;0.50;;;;;;;-143.85;100.00;70650.75;5050652;28;20021;-86
2022/03/26 05:07:55;;;;;;;6.07;0.98;;;;;;;-143.85;100.00;70650.75;5035046;28;20025;-86
2022/03/26 05:10:29;;;;;;;1.17;0.75;;;;;;;-143.85;100.00;70650.75;5034923;28;20053;-86
2022/03/26 05:12:57;;;;;;;0.52;0.52;;;;;;;-143.85;100.00;70650.75;5050884;28;20429;-84
2022/03/26 05:15:24;;;;;;;2.00;1.90;;;;;;;-143.85;100.00;70650.75;5050855;28;20461;-85
2022/03/26 05:17:51;;;;;;;2.60;0.88;;;;;;;-143.85;100.00;70650.75;5050217;28;20151;-84
2022/03/26 05:20:18;;;;;;;0.68;0.68;;;;;;;-143.85;100.00;70650.75;5048168;28;20025;-83
2022/03/26 05:22:45;;;;;;;1.20;1.20;;;;;;;-143.85;100.00;70650.75;5050245;28;20017;-82
2022/03/26 05:25:11;;;;;;;0.60;0.60;;;;;;;-143.85;100.00;70650.75;5050371;28;20025;-82
2022/03/26 05:27:37;;;;;;;7.18;2.15;;;;;;;-143.85;100.00;70650.75;5033912;28;20028;-81
2022/03/26 05:30:04;;;;;;;4.88;2.25;;;;;;;-143.85;100.00;70650.75;5050126;28;20037;-80
2022/03/26 05:32:29;;;;;;;1.85;1.05;;;;;;;-143.85;100.00;70650.75;5050082;28;20022;-80
2022/03/26 05:34:55;;;;;;;0.80;0.80;;;;;;;-143.85;100.00;70650.75;5050384;28;20017;-80
2022/03/26 05:37:20;;;;;;;1.17;1.13;;;;;;;-143.85;100.00;70650.75;5033630;28;20354;-81
2022/03/26 05:39:47;;;;;;;2.53;2.28;;;;;;;-143.85;100.00;70650.75;5034249;28;20026;-81
2022/03/26 05:42:14;;;;;;;1.83;1.73;;;;;;;-143.85;100.00;70650.75;5034451;28;20461;-82
2022/03/26 05:44:40;;;;;;;1.42;1.38;;;;;;;-143.85;100.00;70650.75;5049667;28;20025;-80
2022/03/26 05:47:06;;;;;;;2.50;1.75;;;;;;;-143.85;100.00;70650.75;5034339;28;20469;-81
2022/03/26 05:49:32;;;;;;;26.30;12.98;;;;;;;-143.85;100.00;70650.75;5050607;28;20421;-80
2022/03/26 05:51:57;;;;;;;3.03;2.15;;;;;;;-143.85;100.00;70650.75;5034323;28;20014;-80
2022/03/26 05:54:23;;;;;;;1.23;1.23;;;;;;;-143.85;100.00;70650.75;5049708;28;20022;-80
2022/03/26 05:56:51;;;;;;;2.10;1.85;;;;;;;-143.85;100.00;70650.75;5049676;28;20017;-80
2022/03/26 05:59:26;;;;;;;;;;;;;;;-143.85;100.00;70650.75;5033045;28;20041;-80
2022/03/26 06:01:53;;;;;;;15.70;1.45;;;;;;;-143.85;100.00;70650.75;5032816;28;19913;-80
2022/03/26 06:04:19;;;;;;;6.95;3.40;;;;;;;-143.85;100.00;70650.75;5034234;28;20099;-80
2022/03/26 06:06:46;;;;;;;2.47;2.28;;;;;;;-143.85;100.00;70650.75;5033556;28;20111;-81
2022/03/26 06:09:12;;;;;;;1.90;1.80;;;;;;;-143.85;100.00;70650.75;5033423;28;20021;-80
2022/03/26 06:11:37;;;;;;;1.25;1.25;;;;;;;-143.85;100.00;70650.75;5049493;28;20461;-81
2022/03/26 06:14:03;;;;;;;0.88;0.88;;;;;;;-143.85;100.00;70650.75;5032744;28;20117;-80
2022/03/26 06:16:29;;;;;;;7.47;1.83;;;;;;;-143.85;100.00;70650.75;5033618;28;20022;-80
2022/03/26 06:18:55;;;;;;;2.10;1.98;;;;;;;-143.85;100.00;70650.75;5032741;28;20025;-80
2022/03/26 06:21:20;;;;;;;1.33;1.25;;;;;;;-143.85;100.00;70650.75;5032710;28;20029;-80
2022/03/26 06:23:46;;;;;;;1.67;1.58;;;;;;;-143.85;100.00;70650.75;5033905;28;20045;-81
2022/03/26 06:26:12;;;;;;;1.55;1.42;;;;;;;-143.85;100.00;70650.75;5032626;28;20029;-82
2022/03/26 06:28:38;;;;;;;1.63;1.52;;;;;;;-143.85;100.00;70650.75;5032534;28;20022;-81
2022/03/26 06:31:04;;;;;;;1.05;1.02;;;;;;;-143.85;100.00;70650.75;5032539;28;20026;-82
2022/03/26 06:33:30;;;;;;;5.10;3.38;;;;;;;-143.85;100.00;70650.75;5048926;28;20029;-82
2022/03/26 06:35:56;;;;;;;3.67;3.28;;;;;;;-143.85;100.00;70650.75;5048955;28;20030;-81
2022/03/26 06:38:22;;;;;;;2.70;2.45;;;;;;;-143.85;100.00;70650.75;5048845;28;20029;-81
2022/03/26 06:40:48;;;;;;;1.77;1.67;;;;;;;-143.85;100.00;70650.75;5032201;28;20026;-80
2022/03/26 06:43:14;;;;;;;5.38;3.20;;;;;;;-143.85;100.00;70650.75;5048711;28;20534;-81
2022/03/26 06:45:40;;;;;;;3.30;1.55;;;;;;;-143.85;100.00;70650.75;5033293;28;20017;-80
2022/03/26 06:48:07;;;;;;;5.13;2.58;;;;;;;-143.85;100.00;70650.75;5049030;28;20022;-80
2022/03/26 06:50:33;;;;;;;2.03;1.65;;;;;;;-143.85;100.00;70650.75;5048800;28;20469;-82
2022/03/26 06:52:59;;;;;;;17.90;5.00;;;;;;;-143.85;100.00;70650.75;5048719;28;20021;-80
2022/03/26 06:55:25;;;;;;;7.03;3.10;;;;;;;-143.85;100.00;70650.75;5033436;28;20036;-82
2022/03/26 06:57:51;;;;;;;6.45;2.30;;;;;;;-143.85;100.00;70650.75;5048525;28;20025;-81
2022/03/26 07:00:17;;;;;;;0.90;0.88;;;;;;;-143.85;100.00;70650.75;5048303;28;20049;-81
2022/03/26 07:02:43;;;;;;;5.47;2.20;;;;;;;-143.85;100.00;70650.75;5048622;28;20167;-81
2022/03/26 07:05:10;;;;;;;1.00;1.00;;;;;;;-143.85;100.00;70650.75;5033282;28;20090;-81
2022/03/26 07:07:36;;;;;;;5.63;1.67;;;;;;;-143.85;100.00;70650.75;5048642;28;20025;-81
2022/03/26 07:10:03;;;;;;;2.40;1.88;;;;;;;-143.85;100.00;70650.75;5048476;28;20022;-81
2022/03/26 07:12:29;;;;;;;1.25;1.15;;;;;;;-143.85;100.00;70650.75;5049002;28;20044;-83
2022/03/26 07:14:56;;;;;;;3.13;2.25;;;;;;;-143.85;100.00;70650.75;5048173;28;20068;-82
2022/03/26 07:17:23;;;;;;;6.65;3.22;;;;;;;-143.85;100.00;70650.75;5032419;28;20017;-80
2022/03/26 07:19:51;;;;;;;5.55;1.38;;;;;;;-143.85;100.00;70650.75;5033746;28;20052;-79
2022/03/26 07:22:16;;;;;;;;;;;;;;;-143.85;100.00;70650.75;5051395;28;20022;-81
2022/03/26 07:24:42;;;;;;;2.05;1.85;;;;;;;-143.85;100.00;70650.75;5035524;28;20400;-80
2022/03/26 07:27:08;;;;;;;2.85;2.60;;;;;;;-143.85;100.00;70650.75;5035758;28;20036;-79
2022/03/26 07:29:38;;;;;;;0.95;0.95;;;;;;;-143.85;100.00;70650.75;5052059;28;20025;-80
2022/03/26 07:32:09;;;;;;;3.40;2.70;;;;;;;-143.85;100.00;70650.75;5037199;28;20053;-80
2022/03/26 07:34:35;;;;;;;4.22;2.63;;;;;;;-143.85;100.00;70650.75;5052223;28;20044;-81
2022/03/26 07:37:00;;;;;;;3.55;2.65;;;;;;;-143.85;100.00;70650.75;5051957;28;20117;-79
2022/03/26 07:39:27;;;;;;;6.10;1.48;;;;;;;-143.85;100.00;70650.75;5035663;28;20473;-81
2022/03/26 07:41:53;;;;;;;2.40;1.98;;;;;;;-143.85;100.00;70650.75;5036722;28;20029;-80
2022/03/26 07:44:18;;;;;;;2.20;2.03;;;;;;;-143.85;100.00;70650.75;5035176;28;20044;-80
2022/03/26 07:46:44;;;;;;;3.63;2.42;;;;;;;-143.85;100.00;70650.75;5036336;28;20358;-79
2022/03/26 07:49:10;;;;;;;2.60;2.40;;;;;;;-143.85;100.00;70650.75;5035412;28;20113;-80
2022/03/26 07:51:40;;;;;;;1.80;1.70;;;;;;;-143.85;100.00;70650.75;5052566;28;20098;-81
2022/03/26 07:54:06;;;;;;;5.72;3.65;;;;;;;-143.85;100.00;70650.75;5052260;28;20032;-81
2022/03/26 07:56:32;;;;;;;8.68;5.15;;;;;;;-143.85;100.00;70650.75;5052023;28;20018;-81
2022/03/26 07:58:58;;;;;;;3.17;2.42;;;;;;;-143.85;100.00;70650.75;5051600;28;20029;-82
2022/03/26 08:01:24;;;;;;;4.05;2.88;;;;;;;-143.85;100.00;70650.75;5051939;28;20076;-81
2022/03/26 08:03:54;;;;;;;3.55;2.58;;;;;;;-143.85;100.00;70650.75;5054661;28;20056;-84
2022/03/26 08:06:24;;;;;;;2.05;1.88;;;;;;;-143.85;100.00;70650.75;5045607;28;20027;-83
2022/03/26 08:08:50;;;;;;;2.35;2.15;;;;;;;-143.85;100.00;70650.75;5036745;28;20025;-84
2022/03/26 08:11:16;;;;;;;1.83;1.58;;;;;;;-143.85;100.00;70650.75;5052143;28;20021;-81
2022/03/26 08:13:42;;;;;;;3.75;1.95;;;;;;;-143.85;100.00;70650.75;5034896;28;20477;-83
2022/03/26 08:16:08;;;;;;;2.38;1.90;;;;;;;-143.85;100.00;70650.75;5035698;28;20021;-82
2022/03/26 08:18:34;;;;;;;1.63;1.50;;;;;;;-143.85;100.00;70650.75;5051702;28;20084;-82
2022/03/26 08:21:01;;;;;;;1.52;1.35;;;;;;;-143.85;100.00;70650.75;5035383;28;20018;-82
2022/03/26 08:23:27;;;;;;;3.90;2.93;;;;;;;-143.85;100.00;70650.75;5035938;28;20028;-83
2022/03/26 08:28:39;;;;;;;2.03;1.83;;;;;;;-143.85;100.00;70650.75;5036327;28;20032;-81
2022/03/26 08:31:05;;;;;;;1.95;1.85;;;;;;;-143.85;100.00;70650.75;5050775;28;20025;-81
2022/03/26 08:33:30;;;;;;;2.38;2.28;;;;;;;-143.85;100.00;70650.75;5035018;28;20412;-82
2022/03/26 08:35:56;;;;;;;17.83;2.75;;;;;;;-143.85;100.00;70650.75;5051259;28;20041;-82
2022/03/26 08:38:22;;;;;;;2.50;2.17;;;;;;;-143.85;100.00;70650.75;5051310;28;20029;-82
2022/03/26 08:40:48;;;;;;;1.77;1.67;;;;;;;-143.85;100.00;70650.75;5050922;28;20026;-82
2022/03/26 08:43:15;;;;;;;1.45;1.35;;;;;;;-143.85;100.00;70650.75;5051113;28;20112;-83
2022/03/26 08:45:41;;;;;;;14.20;4.78;;;;;;;-143.85;100.00;70650.75;5051166;28;20104;-82
2022/03/26 08:48:08;;;;;;;3.03;1.77;;;;;;;-143.85;100.00;70650.75;5051059;28;20083;-82
2022/03/26 08:50:34;;;;;;;3.92;2.47;;;;;;;-143.85;100.00;70650.75;5050916;28;20128;-82
2022/03/26 08:53:01;;;;;;;2.33;2.15;;;;;;;-143.85;100.00;70650.75;5035899;28;20469;-83
2022/03/26 08:55:26;;;;;;;3.55;2.97;;;;;;;-143.85;100.00;70650.75;5035649;28;20116;-82
2022/03/26 08:57:52;;;;;;;3.08;2.80;;;;;;;-143.85;100.00;70650.75;5050799;28;20101;-81
2022/03/26 09:00:20;;;;;;;2.42;2.28;;;;;;;-143.85;100.00;70650.75;5034100;28;20408;-82
2022/03/26 09:02:46;;;;;;;4.25;2.80;;;;;;;-143.85;100.00;70650.75;5050578;28;20022;-82
2022/03/26 09:05:15;;;;;;;5.00;2.35;;;;;;;-143.85;100.00;70650.75;5035762;28;20118;-83
2022/03/26 09:07:41;;;;;;;4.38;3.22;;;;;;;-143.85;100.00;70650.75;5050558;28;20166;-81
2022/03/26 09:10:08;;;;;;;3.28;2.53;;;;;;;-143.85;100.00;70650.75;5050680;28;20124;-82
2022/03/26 09:12:34;;;;;;;5.65;4.97;;;;;;;-143.85;100.00;70650.75;5050400;28;20025;-82
2022/03/26 09:15:00;;;;;;;1.73;1.63;;;;;;;-143.85;100.00;70650.75;5050656;28;20102;-83
2022/03/26 09:17:26;;;;;;;2.13;1.85;;;;;;;-143.85;100.00;70650.75;5050515;28;20121;-82
2022/03/26 09:19:51;;;;;;;10.93;3.38;;;;;;;-143.85;100.00;70650.75;5034896;28;20465;-83
2022/03/26 09:22:17;;;;;;;1.40;1.33;;;;;;;-143.85;100.00;70650.75;5050289;28;20018;-83
2022/03/26 09:24:42;;;;;;;3.00;2.42;;;;;;;-143.85;100.00;70650.75;5035027;28;20041;-82
2022/03/26 09:27:09;;;;;;;2.85;2.30;;;;;;;-143.85;100.00;70650.75;5034818;28;20056;-83
2022/03/26 09:29:35;;;;;;;2.75;1.80;;;;;;;-143.85;100.00;70650.75;5050177;28;20448;-83
2022/03/26 09:32:01;;;;;;;2.70;2.45;;;;;;;-143.85;100.00;70650.75;5050177;28;20053;-82
2022/03/26 09:34:26;;;;;;;1.25;1.23;;;;;;;-143.85;100.00;70650.75;5034672;28;20021;-82
2022/03/26 09:36:53;;;;;;;3.00;2.80;;;;;;;-143.85;100.00;70650.75;5034927;28;20100;-82
2022/03/26 09:39:19;;;;;;;6.45;3.58;;;;;;;-143.85;100.00;70650.75;5050356;28;20479;-83
2022/03/26 09:41:46;;;;;;;8.82;5.55;;;;;;;-143.85;100.00;70650.75;5033465;28;20112;-81
2022/03/26 09:44:12;;;;;;;1.20;1.07;;;;;;;-143.85;100.00;70650.75;5050016;28;20427;-82
2022/03/26 09:46:39;;;;;;;2.28;2.08;;;;;;;-143.85;100.00;70650.75;5049689;28;20032;-82
2022/03/26 09:49:05;;;;;;;1.13;1.13;;;;;;;-143.85;100.00;70650.75;5049896;28;20030;-82
2022/03/26 09:51:32;;;;;;;1.65;1.35;;;;;;;-143.85;100.00;70650.75;5034595;28;20025;-82
2022/03/26 09:53:57;;;;;;;0.77;0.68;;;;;;;-143.85;100.00;70650.75;5050135;28;20078;-82
2022/03/26 09:56:24;;;;;;;2.35;2.15;;;;;;;-143.85;100.00;70650.75;5049760;28;20017;-83
2022/03/26 09:58:53;;;;;;;2.63;2.43;;;;;;;-143.85;100.00;70650.75;5032634;28;20040;-82
2022/03/26 10:01:20;;;;;;;3.15;2.10;;;;;;;-143.85;100.00;70650.75;5050398;28;20057;-81
2022/03/26 10:04:09;;;;;;;2.13;2.03;;;;;;;-143.85;100.00;70650.75;5049876;28;20380;-83
2022/03/26 10:06:35;;;;;;;2.00;1.88;;;;;;;-143.85;100.00;70650.75;5034428;28;20030;-82
2022/03/26 10:09:00;;;;;;;1.60;1.52;;;;;;;-143.85;100.00;70650.75;5034053;28;20032;-80
2022/03/26 10:11:32;;;;;;;4.47;2.50;;;;;;;-143.85;100.00;70650.75;5034056;28;20071;-82
2022/03/26 10:13:57;;;;;;;3.05;2.00;;;;;;;-143.85;100.00;70650.75;5049968;28;20163;-81
2022/03/26 10:16:23;;;;;;;1.10;1.10;;;;;;;-143.85;100.00;70650.75;5034082;28;20067;-81
2022/03/26 10:18:50;;;;;;;1.50;1.40;;;;;;;-143.85;100.00;70650.75;5032912;28;20017;-81
2022/03/26 10:21:20;;;;;;;1.50;1.40;;;;;;;-143.85;100.00;70650.75;5049573;28;20018;-81
2022/03/26 10:23:51;;;;;;;0.75;0.75;;;;;;;-143.85;100.00;70650.75;5034059;28;20081;-81
2022/03/26 10:26:19;;;;;;;2.40;1.45;;;;;;;-143.85;100.00;70650.75;5049316;28;20108;-81
2022/03/26 10:28:51;;;;;;;1.88;1.77;;;;;;;-143.85;100.00;70650.75;5033968;28;20033;-82
2022/03/26 10:34:10;;;;;;;2.85;2.65;;;;;;;-143.85;100.00;70650.75;5033914;28;20112;-82
2022/03/26 10:37:02;;;;;;;3.33;1.60;;;;;;;-143.85;100.00;70650.75;5033698;28;20465;-82
2022/03/26 10:39:29;;;;;;;0.90;0.90;;;;;;;-143.85;100.00;70650.75;5032606;28;20033;-82
2022/03/26 10:41:56;;;;;;;1.58;1.55;;;;;;;-143.85;100.00;70650.75;5048992;28;20041;-82
2022/03/26 10:44:29;;;;;;;3.08;2.78;;;;;;;-143.85;100.00;70650.75;5033194;28;20116;-82
2022/03/26 10:46:57;;;;;;;1.95;1.75;;;;;;;-143.85;100.00;70650.75;5049069;28;20029;-82
2022/03/26 10:49:37;;;;;;;2.72;1.88;;;;;;;-143.85;100.00;70650.75;5052354;28;20052;-83
2022/03/26 10:52:15;;;;;;;8.85;1.45;;;;;;;-143.85;100.00;70650.75;5074625;28;20024;-83
2022/03/26 10:54:41;;;;;;;1.00;1.00;;;;;;;-143.85;100.00;70650.75;5048619;28;20021;-82
2022/03/26 10:57:08;;;;;;;3.35;1.40;;;;;;;-143.85;100.00;70650.75;5037579;28;20033;-83
2022/03/26 10:59:33;;;;;;;1.80;1.08;;;;;;;-143.85;100.00;70650.75;5039558;28;20090;-82
2022/03/26 11:01:59;;;;;;;0.85;0.85;;;;;;;-143.85;100.00;70650.75;5041234;28;20022;-82
2022/03/26 11:04:26;;;;;;;1.55;1.08;;;;;;;-143.85;100.00;70650.75;5041556;28;20037;-82
2022/03/26 11:06:52;;;;;;;1.30;1.20;;;;;;;-143.85;100.00;70650.75;5054867;28;20021;-82
2022/03/26 11:09:19;;;;;;;1.35;1.25;;;;;;;-143.85;100.00;70650.75;5041237;28;20109;-82
2022/03/26 11:11:48;;;;;;;1.15;1.05;;;;;;;-143.85;100.00;70650.75;5055763;28;20119;-82